sensor_id;sensor_type;location;lat;lon;timestamp;pressure;altitude;pressure_sealevel;temperature;humidity
41334;BME280;27078;46.428;6.256;2023-05-19T00:01:05;96650.06;;;12.34;100.00
41334;BME280;27078;46.428;6.256;2023-05-19T00:03:32;96645.34;;;12.28;100.00
41334;BME280;27078;46.428;6.256;2023-05-19T00:06:00;96643.78;;;12.35;100.00
41334;BME280;27078;46.428;6.256;2023-05-19T00:08:29;96646.44;;;12.35;100.00
41334;BME280;27078;46.428;6.256;2023-05-19T00:10:55;96650.34;;;12.41;100.00
41334;BME280;27078;46.428;6.256;2023-05-19T00:13:22;96635.13;;;12.43;100.00
41334;BME280;27078;46.428;6.256;2023-05-19T00:15:47;96643.63;;;12.47;100.00
41334;BME280;27078;46.428;6.256;2023-05-19T00:18:13;96640.28;;;12.45;100.00
41334;BME280;27078;46.428;6.256;2023-05-19T00:20:40;96634.94;;;12.54;100.00
41334;BME280;27078;46.428;6.256;2023-05-19T00:23:06;96639.28;;;12.55;100.00
41334;BME280;27078;46.428;6.256;2023-05-19T00:25:31;96635.78;;;12.55;99.78
41334;BME280;27078;46.428;6.256;2023-05-19T00:27:56;96634.41;;;12.51;100.00
41334;BME280;27078;46.428;6.256;2023-05-19T00:30:23;96636.63;;;12.55;99.42
41334;BME280;27078;46.428;6.256;2023-05-19T00:32:48;96633.03;;;12.47;100.00
41334;BME280;27078;46.428;6.256;2023-05-19T00:35:14;96629.66;;;12.54;98.81
41334;BME280;27078;46.428;6.256;2023-05-19T00:37:40;96637.47;;;12.56;100.00
41334;BME280;27078;46.428;6.256;2023-05-19T00:40:06;96630.91;;;12.50;100.00
41334;BME280;27078;46.428;6.256;2023-05-19T00:42:32;96631.06;;;12.49;99.41
41334;BME280;27078;46.428;6.256;2023-05-19T00:44:57;96630.66;;;12.53;100.00
41334;BME280;27078;46.428;6.256;2023-05-19T00:47:23;96641.28;;;12.34;100.00
41334;BME280;27078;46.428;6.256;2023-05-19T00:49:48;96619.97;;;12.26;100.00
41334;BME280;27078;46.428;6.256;2023-05-19T00:52:14;96625.69;;;12.21;100.00
41334;BME280;27078;46.428;6.256;2023-05-19T00:54:39;96626.66;;;12.20;100.00
41334;BME280;27078;46.428;6.256;2023-05-19T00:57:04;96635.59;;;11.99;100.00
41334;BME280;27078;46.428;6.256;2023-05-19T00:59:30;96625.31;;;11.96;100.00
41334;BME280;27078;46.428;6.256;2023-05-19T01:01:56;96618.34;;;12.05;100.00
41334;BME280;27078;46.428;6.256;2023-05-19T01:04:21;96613.16;;;12.13;100.00
41334;BME280;27078;46.428;6.256;2023-05-19T01:06:50;96615.81;;;12.13;100.00
41334;BME280;27078;46.428;6.256;2023-05-19T01:09:20;96616.91;;;12.30;100.00
41334;BME280;27078;46.428;6.256;2023-05-19T01:11:45;96608.28;;;12.18;100.00
41334;BME280;27078;46.428;6.256;2023-05-19T01:14:10;96616.94;;;12.01;100.00
41334;BME280;27078;46.428;6.256;2023-05-19T01:16:40;96613.19;;;11.94;100.00
41334;BME280;27078;46.428;6.256;2023-05-19T01:25:44;96613.03;;;11.95;100.00
41334;BME280;27078;46.428;6.256;2023-05-19T01:28:30;96621.53;;;11.89;100.00
41334;BME280;27078;46.428;6.256;2023-05-19T01:30:57;96620.41;;;11.82;100.00
41334;BME280;27078;46.428;6.256;2023-05-19T01:33:26;96618.59;;;11.73;100.00
41334;BME280;27078;46.428;6.256;2023-05-19T01:35:54;96613.16;;;11.65;100.00
41334;BME280;27078;46.428;6.256;2023-05-19T01:38:20;96620.53;;;11.51;100.00
41334;BME280;27078;46.428;6.256;2023-05-19T01:40:48;96620.25;;;11.45;100.00
41334;BME280;27078;46.428;6.256;2023-05-19T01:43:16;96614.28;;;11.72;100.00
41334;BME280;27078;46.428;6.256;2023-05-19T01:45:42;96614.97;;;11.74;100.00
41334;BME280;27078;46.428;6.256;2023-05-19T01:48:08;96620.28;;;11.64;100.00
41334;BME280;27078;46.428;6.256;2023-05-19T01:50:36;96611.06;;;11.78;100.00
41334;BME280;27078;46.428;6.256;2023-05-19T01:53:01;96615.41;;;11.79;100.00
41334;BME280;27078;46.428;6.256;2023-05-19T01:55:27;96619.41;;;11.83;100.00
41334;BME280;27078;46.428;6.256;2023-05-19T02:00:32;96612.47;;;11.82;100.00
41334;BME280;27078;46.428;6.256;2023-05-19T02:08:33;96628.22;;;12.13;100.00
41334;BME280;27078;46.428;6.256;2023-05-19T02:11:08;96632.81;;;11.91;100.00
41334;BME280;27078;46.428;6.256;2023-05-19T02:13:42;96634.31;;;11.74;100.00
41334;BME280;27078;46.428;6.256;2023-05-19T02:16:09;96628.06;;;11.66;100.00
41334;BME280;27078;46.428;6.256;2023-05-19T02:18:35;96631.97;;;11.52;100.00
41334;BME280;27078;46.428;6.256;2023-05-19T02:21:01;96628.63;;;11.50;100.00
41334;BME280;27078;46.428;6.256;2023-05-19T02:23:27;96627.19;;;11.36;100.00
41334;BME280;27078;46.428;6.256;2023-05-19T02:25:52;96627.47;;;11.43;100.00
41334;BME280;27078;46.428;6.256;2023-05-19T02:28:18;96628.88;;;11.47;100.00
41334;BME280;27078;46.428;6.256;2023-05-19T02:30:43;96615.22;;;11.51;100.00
41334;BME280;27078;46.428;6.256;2023-05-19T02:33:08;96616.78;;;11.73;100.00
41334;BME280;27078;46.428;6.256;2023-05-19T02:35:35;96613.59;;;11.60;100.00
41334;BME280;27078;46.428;6.256;2023-05-19T02:38:01;96618.72;;;11.61;100.00
41334;BME280;27078;46.428;6.256;2023-05-19T02:40:26;96612.44;;;11.53;100.00
41334;BME280;27078;46.428;6.256;2023-05-19T02:42:51;96609.53;;;11.46;100.00
41334;BME280;27078;46.428;6.256;2023-05-19T02:45:17;96611.34;;;11.65;100.00
41334;BME280;27078;46.428;6.256;2023-05-19T02:47:42;96608.56;;;11.57;100.00
41334;BME280;27078;46.428;6.256;2023-05-19T02:50:08;96604.25;;;11.56;100.00
41334;BME280;27078;46.428;6.256;2023-05-19T02:52:33;96603.41;;;11.46;100.00
41334;BME280;27078;46.428;6.256;2023-05-19T02:54:59;96602.44;;;11.47;100.00
41334;BME280;27078;46.428;6.256;2023-05-19T02:57:24;96610.06;;;11.40;100.00
41334;BME280;27078;46.428;6.256;2023-05-19T02:59:51;96603.66;;;11.43;100.00
41334;BME280;27078;46.428;6.256;2023-05-19T03:02:16;96596.72;;;11.51;100.00
41334;BME280;27078;46.428;6.256;2023-05-19T03:04:42;96598.53;;;11.31;100.00
41334;BME280;27078;46.428;6.256;2023-05-19T03:07:08;96602.53;;;11.26;100.00
41334;BME280;27078;46.428;6.256;2023-05-19T03:09:36;96589.84;;;11.19;100.00
41334;BME280;27078;46.428;6.256;2023-05-19T03:12:01;96606.53;;;11.10;100.00
41334;BME280;27078;46.428;6.256;2023-05-19T03:14:28;96596.97;;;11.09;100.00
41334;BME280;27078;46.428;6.256;2023-05-19T03:16:54;96598.19;;;11.05;100.00
41334;BME280;27078;46.428;6.256;2023-05-19T03:19:20;96590.69;;;11.10;100.00
41334;BME280;27078;46.428;6.256;2023-05-19T03:21:45;96590.91;;;10.88;100.00
41334;BME280;27078;46.428;6.256;2023-05-19T03:24:12;96596.16;;;10.78;100.00
41334;BME280;27078;46.428;6.256;2023-05-19T03:26:37;96597.53;;;10.72;100.00
41334;BME280;27078;46.428;6.256;2023-05-19T03:29:02;96597.53;;;10.72;100.00
41334;BME280;27078;46.428;6.256;2023-05-19T03:31:28;96592.13;;;10.84;100.00
41334;BME280;27078;46.428;6.256;2023-05-19T03:33:54;96589.41;;;10.95;100.00
41334;BME280;27078;46.428;6.256;2023-05-19T03:36:22;96586.75;;;10.95;100.00
41334;BME280;27078;46.428;6.256;2023-05-19T03:38:47;96591.81;;;11.08;100.00
41334;BME280;27078;46.428;6.256;2023-05-19T03:41:13;96594.00;;;11.03;100.00
41334;BME280;27078;46.428;6.256;2023-05-19T03:43:38;96593.00;;;10.94;100.00
41334;BME280;27078;46.428;6.256;2023-05-19T03:46:04;96594.84;;;11.03;100.00
41334;BME280;27078;46.428;6.256;2023-05-19T03:48:29;96597.34;;;11.05;100.00
41334;BME280;27078;46.428;6.256;2023-05-19T03:50:55;96598.28;;;10.94;100.00
41334;BME280;27078;46.428;6.256;2023-05-19T03:53:20;96601.91;;;10.93;100.00
41334;BME280;27078;46.428;6.256;2023-05-19T03:55:45;96601.22;;;10.91;100.00
41334;BME280;27078;46.428;6.256;2023-05-19T03:58:12;96598.50;;;10.71;100.00
41334;BME280;27078;46.428;6.256;2023-05-19T04:00:39;96610.63;;;10.74;100.00
41334;BME280;27078;46.428;6.256;2023-05-19T04:03:04;96605.09;;;10.56;100.00
41334;BME280;27078;46.428;6.256;2023-05-19T04:05:30;96607.75;;;10.56;100.00
41334;BME280;27078;46.428;6.256;2023-05-19T04:07:55;96612.16;;;10.46;100.00
41334;BME280;27078;46.428;6.256;2023-05-19T04:10:20;96618.28;;;10.46;100.00
41334;BME280;27078;46.428;6.256;2023-05-19T04:12:46;96614.97;;;10.54;100.00
41334;BME280;27078;46.428;6.256;2023-05-19T04:15:12;96616.19;;;10.80;100.00
41334;BME280;27078;46.428;6.256;2023-05-19T04:17:37;96615.50;;;10.78;100.00
41334;BME280;27078;46.428;6.256;2023-05-19T04:20:03;96620.34;;;10.73;100.00
41334;BME280;27078;46.428;6.256;2023-05-19T04:22:31;96619.50;;;10.73;100.00
41334;BME280;27078;46.428;6.256;2023-05-19T04:24:56;96622.47;;;10.79;100.00
41334;BME280;27078;46.428;6.256;2023-05-19T04:27:23;96621.81;;;10.97;100.00
41334;BME280;27078;46.428;6.256;2023-05-19T04:29:48;96629.09;;;11.14;100.00
41334;BME280;27078;46.428;6.256;2023-05-19T04:32:13;96627.44;;;11.23;100.00
41334;BME280;27078;46.428;6.256;2023-05-19T04:34:41;96624.38;;;11.28;100.00
41334;BME280;27078;46.428;6.256;2023-05-19T04:37:10;96621.91;;;11.26;100.00
41334;BME280;27078;46.428;6.256;2023-05-19T04:39:36;96630.53;;;11.28;100.00
41334;BME280;27078;46.428;6.256;2023-05-19T04:42:04;96637.47;;;11.29;100.00
41334;BME280;27078;46.428;6.256;2023-05-19T04:44:29;96631.63;;;11.26;100.00
41334;BME280;27078;46.428;6.256;2023-05-19T04:46:55;96626.34;;;11.26;100.00
41334;BME280;27078;46.428;6.256;2023-05-19T04:49:21;96627.19;;;11.26;100.00
41334;BME280;27078;46.428;6.256;2023-05-19T04:51:48;96634.88;;;11.39;100.00
41334;BME280;27078;46.428;6.256;2023-05-19T04:54:15;96636.53;;;11.40;100.00
41334;BME280;27078;46.428;6.256;2023-05-19T04:56:40;96638.19;;;11.51;100.00
41334;BME280;27078;46.428;6.256;2023-05-19T04:59:07;96625.56;;;11.54;100.00
41334;BME280;27078;46.428;6.256;2023-05-19T05:01:34;96619.84;;;11.69;100.00
41334;BME280;27078;46.428;6.256;2023-05-19T05:04:04;96623.78;;;11.94;100.00
41334;BME280;27078;46.428;6.256;2023-05-19T05:06:29;96620.69;;;12.18;100.00
41334;BME280;27078;46.428;6.256;2023-05-19T05:08:55;96623.97;;;12.39;100.00
41334;BME280;27078;46.428;6.256;2023-05-19T05:11:21;96621.56;;;12.56;100.00
41334;BME280;27078;46.428;6.256;2023-05-19T05:13:46;96627.69;;;12.66;100.00
41334;BME280;27078;46.428;6.256;2023-05-19T05:16:12;96623.88;;;12.78;100.00
41334;BME280;27078;46.428;6.256;2023-05-19T05:18:38;96628.19;;;12.79;100.00
41334;BME280;27078;46.428;6.256;2023-05-19T05:21:05;96620.63;;;12.84;100.00
41334;BME280;27078;46.428;6.256;2023-05-19T05:23:31;96627.03;;;12.92;100.00
41334;BME280;27078;46.428;6.256;2023-05-19T05:25:56;96626.81;;;13.03;100.00
41334;BME280;27078;46.428;6.256;2023-05-19T05:28:22;96624.38;;;13.19;100.00
41334;BME280;27078;46.428;6.256;2023-05-19T05:30:48;96625.66;;;13.43;100.00
41334;BME280;27078;46.428;6.256;2023-05-19T05:33:14;96627.19;;;13.63;100.00
41334;BME280;27078;46.428;6.256;2023-05-19T05:35:40;96623.63;;;13.73;100.00
41334;BME280;27078;46.428;6.256;2023-05-19T05:38:05;96620.44;;;13.87;100.00
41334;BME280;27078;46.428;6.256;2023-05-19T05:40:30;96615.97;;;14.05;98.25
41334;BME280;27078;46.428;6.256;2023-05-19T05:42:56;96613.88;;;14.17;97.31
41334;BME280;27078;46.428;6.256;2023-05-19T05:45:23;96618.78;;;14.30;97.15
41334;BME280;27078;46.428;6.256;2023-05-19T05:47:48;96615.22;;;14.48;93.85
41334;BME280;27078;46.428;6.256;2023-05-19T05:50:14;96622.00;;;14.60;93.45
41334;BME280;27078;46.428;6.256;2023-05-19T05:52:40;96607.59;;;14.71;94.94
41334;BME280;27078;46.428;6.256;2023-05-19T05:55:07;96610.44;;;14.77;93.84
41334;BME280;27078;46.428;6.256;2023-05-19T05:57:32;96606.03;;;14.86;93.46
41334;BME280;27078;46.428;6.256;2023-05-19T06:00:00;96607.16;;;14.75;90.97
41334;BME280;27078;46.428;6.256;2023-05-19T06:02:26;96606.53;;;14.55;92.74
41334;BME280;27078;46.428;6.256;2023-05-19T06:04:52;96609.63;;;14.51;93.92
41334;BME280;27078;46.428;6.256;2023-05-19T06:07:18;96601.28;;;14.45;93.91
41334;BME280;27078;46.428;6.256;2023-05-19T06:09:43;96607.59;;;14.44;97.36
41334;BME280;27078;46.428;6.256;2023-05-19T06:12:09;96599.28;;;14.48;97.53
41334;BME280;27078;46.428;6.256;2023-05-19T06:14:35;96600.97;;;14.49;97.53
41334;BME280;27078;46.428;6.256;2023-05-19T06:17:01;96607.13;;;14.49;96.59
41334;BME280;27078;46.428;6.256;2023-05-19T06:19:26;96607.50;;;14.54;98.54
41334;BME280;27078;46.428;6.256;2023-05-19T06:21:51;96606.81;;;14.52;98.19
41334;BME280;27078;46.428;6.256;2023-05-19T06:24:17;96601.88;;;14.57;99.40
41334;BME280;27078;46.428;6.256;2023-05-19T06:26:42;96607.34;;;14.56;97.88
41334;BME280;27078;46.428;6.256;2023-05-19T06:29:07;96606.72;;;14.62;100.00
41334;BME280;27078;46.428;6.256;2023-05-19T06:31:33;96598.28;;;14.66;100.00
41334;BME280;27078;46.428;6.256;2023-05-19T06:33:58;96595.75;;;14.57;95.04
41334;BME280;27078;46.428;6.256;2023-05-19T06:36:24;96604.06;;;14.62;97.47
41334;BME280;27078;46.428;6.256;2023-05-19T06:38:49;96591.09;;;14.59;97.79
41334;BME280;27078;46.428;6.256;2023-05-19T06:41:14;96593.19;;;14.73;99.35
41334;BME280;27078;46.428;6.256;2023-05-19T06:43:41;96593.19;;;14.81;99.81
41334;BME280;27078;46.428;6.256;2023-05-19T06:46:06;96601.84;;;14.83;96.86
41334;BME280;27078;46.428;6.256;2023-05-19T06:48:32;96589.94;;;14.96;97.31
41334;BME280;27078;46.428;6.256;2023-05-19T06:50:57;96589.13;;;14.95;94.27
41334;BME280;27078;46.428;6.256;2023-05-19T06:53:23;96594.31;;;15.05;95.04
41334;BME280;27078;46.428;6.256;2023-05-19T06:55:48;96595.00;;;15.07;92.18
41334;BME280;27078;46.428;6.256;2023-05-19T06:58:16;96594.28;;;14.97;93.90
41334;BME280;27078;46.428;6.256;2023-05-19T07:00:41;96594.59;;;14.94;91.78
41334;BME280;27078;46.428;6.256;2023-05-19T07:03:07;96589.53;;;15.17;93.63
41334;BME280;27078;46.428;6.256;2023-05-19T07:05:32;96584.72;;;15.20;93.04
41334;BME280;27078;46.428;6.256;2023-05-19T07:07:58;96583.44;;;15.33;92.87
41334;BME280;27078;46.428;6.256;2023-05-19T07:10:23;96578.47;;;15.46;91.11
41334;BME280;27078;46.428;6.256;2023-05-19T07:12:48;96590.59;;;15.48;91.88
41334;BME280;27078;46.428;6.256;2023-05-19T07:15:14;96582.13;;;15.53;92.02
41334;BME280;27078;46.428;6.256;2023-05-19T07:17:39;96582.13;;;15.61;88.64
41334;BME280;27078;46.428;6.256;2023-05-19T07:20:05;96576.97;;;15.60;91.99
41334;BME280;27078;46.428;6.256;2023-05-19T07:22:31;96568.66;;;15.63;91.50
41334;BME280;27078;46.428;6.256;2023-05-19T07:24:59;96574.81;;;15.63;91.12
41334;BME280;27078;46.428;6.256;2023-05-19T07:27:24;96579.16;;;15.56;85.47
41334;BME280;27078;46.428;6.256;2023-05-19T07:29:50;96581.97;;;15.55;90.04
41334;BME280;27078;46.428;6.256;2023-05-19T07:32:15;96577.31;;;15.65;89.08
41334;BME280;27078;46.428;6.256;2023-05-19T07:34:41;96584.28;;;15.50;90.76
41334;BME280;27078;46.428;6.256;2023-05-19T07:37:06;96578.13;;;15.49;93.27
41334;BME280;27078;46.428;6.256;2023-05-19T07:39:33;96574.31;;;15.60;88.32
41334;BME280;27078;46.428;6.256;2023-05-19T07:41:58;96573.34;;;15.69;86.62
41334;BME280;27078;46.428;6.256;2023-05-19T07:44:24;96574.97;;;15.70;86.79
41334;BME280;27078;46.428;6.256;2023-05-19T07:46:51;96575.53;;;15.90;88.35
41334;BME280;27078;46.428;6.256;2023-05-19T07:49:16;96568.22;;;16.00;85.91
41334;BME280;27078;46.428;6.256;2023-05-19T07:51:42;96568.19;;;16.08;83.16
41334;BME280;27078;46.428;6.256;2023-05-19T07:54:07;96560.38;;;16.15;84.95
41334;BME280;27078;46.428;6.256;2023-05-19T07:56:33;96562.19;;;16.15;84.13
41334;BME280;27078;46.428;6.256;2023-05-19T07:58:58;96570.53;;;16.20;82.65
41334;BME280;27078;46.428;6.256;2023-05-19T08:01:23;96569.66;;;16.36;83.27
41334;BME280;27078;46.428;6.256;2023-05-19T08:03:49;96562.47;;;16.44;81.79
41334;BME280;27078;46.428;6.256;2023-05-19T08:06:14;96559.13;;;16.59;85.51
41334;BME280;27078;46.428;6.256;2023-05-19T08:08:39;96562.84;;;16.41;78.89
41334;BME280;27078;46.428;6.256;2023-05-19T08:11:06;96552.72;;;16.12;83.01
41334;BME280;27078;46.428;6.256;2023-05-19T08:13:32;96548.25;;;15.96;86.57
41334;BME280;27078;46.428;6.256;2023-05-19T08:15:57;96558.22;;;15.78;83.95
41334;BME280;27078;46.428;6.256;2023-05-19T08:18:26;96547.84;;;15.50;84.65
41334;BME280;27078;46.428;6.256;2023-05-19T08:20:52;96546.84;;;15.43;82.95
41334;BME280;27078;46.428;6.256;2023-05-19T08:23:17;96554.19;;;15.41;82.50
41334;BME280;27078;46.428;6.256;2023-05-19T08:25:43;96547.03;;;15.66;82.54
41334;BME280;27078;46.428;6.256;2023-05-19T08:28:09;96546.34;;;15.31;84.39
41334;BME280;27078;46.428;6.256;2023-05-19T08:30:34;96550.94;;;15.13;84.83
41334;BME280;27078;46.428;6.256;2023-05-19T08:33:00;96545.75;;;15.11;85.93
41334;BME280;27078;46.428;6.256;2023-05-19T08:35:26;96531.72;;;15.43;83.11
41334;BME280;27078;46.428;6.256;2023-05-19T08:37:51;96537.22;;;15.58;87.01
41334;BME280;27078;46.428;6.256;2023-05-19T08:40:17;96548.16;;;15.47;84.26
41334;BME280;27078;46.428;6.256;2023-05-19T08:42:44;96542.56;;;15.83;81.35
41334;BME280;27078;46.428;6.256;2023-05-19T08:45:10;96531.06;;;16.15;88.05
41334;BME280;27078;46.428;6.256;2023-05-19T08:47:35;96535.78;;;16.61;84.31
41334;BME280;27078;46.428;6.256;2023-05-19T08:50:04;96536.97;;;16.58;79.54
41334;BME280;27078;46.428;6.256;2023-05-19T08:55:20;96531.47;;;16.99;75.19
41334;BME280;27078;46.428;6.256;2023-05-19T08:57:52;96539.41;;;17.16;77.86
41334;BME280;27078;46.428;6.256;2023-05-19T09:00:18;96524.53;;;17.21;76.57
41334;BME280;27078;46.428;6.256;2023-05-19T09:02:44;96527.25;;;17.44;77.80
41334;BME280;27078;46.428;6.256;2023-05-19T09:05:12;96522.59;;;17.38;74.62
41334;BME280;27078;46.428;6.256;2023-05-19T09:07:37;96526.69;;;16.95;77.19
41334;BME280;27078;46.428;6.256;2023-05-19T09:10:06;96515.22;;;17.17;75.86
41334;BME280;27078;46.428;6.256;2023-05-19T09:12:33;96525.66;;;17.27;79.28
41334;BME280;27078;46.428;6.256;2023-05-19T09:14:58;96515.84;;;17.50;83.84
41334;BME280;27078;46.428;6.256;2023-05-19T09:17:23;96520.88;;;17.45;77.92
41334;BME280;27078;46.428;6.256;2023-05-19T09:19:49;96529.31;;;17.03;81.34
41334;BME280;27078;46.428;6.256;2023-05-19T09:22:15;96518.09;;;17.39;82.75
41334;BME280;27078;46.428;6.256;2023-05-19T09:24:43;96513.94;;;17.36;82.04
41334;BME280;27078;46.428;6.256;2023-05-19T09:27:08;96517.66;;;17.50;82.75
41334;BME280;27078;46.428;6.256;2023-05-19T09:29:34;96519.31;;;17.82;81.41
41334;BME280;27078;46.428;6.256;2023-05-19T09:31:59;96518.25;;;18.06;76.58
41334;BME280;27078;46.428;6.256;2023-05-19T09:34:28;96517.81;;;18.18;76.85
41334;BME280;27078;46.428;6.256;2023-05-19T09:36:53;96521.13;;;18.35;77.11
41334;BME280;27078;46.428;6.256;2023-05-19T09:39:21;96518.94;;;18.38;75.17
41334;BME280;27078;46.428;6.256;2023-05-19T09:41:49;96519.78;;;18.54;74.57
41334;BME280;27078;46.428;6.256;2023-05-19T09:44:25;96515.72;;;18.58;73.65
41334;BME280;27078;46.428;6.256;2023-05-19T09:46:53;96528.53;;;18.47;73.33
41334;BME280;27078;46.428;6.256;2023-05-19T09:49:20;96525.50;;;18.36;70.94
41334;BME280;27078;46.428;6.256;2023-05-19T09:51:56;96509.88;;;18.39;74.99
41334;BME280;27078;46.428;6.256;2023-05-19T09:54:23;96513.59;;;18.38;72.09
41334;BME280;27078;46.428;6.256;2023-05-19T09:56:59;96518.25;;;18.06;74.57
41334;BME280;27078;46.428;6.256;2023-05-19T09:59:27;96511.09;;;18.22;73.13
41334;BME280;27078;46.428;6.256;2023-05-19T10:01:54;96505.41;;;18.55;73.56
41334;BME280;27078;46.428;6.256;2023-05-19T10:04:21;96512.22;;;18.42;72.77
41334;BME280;27078;46.428;6.256;2023-05-19T10:06:49;96509.72;;;18.56;70.02
41334;BME280;27078;46.428;6.256;2023-05-19T10:09:25;96516.25;;;18.98;71.08
41334;BME280;27078;46.428;6.256;2023-05-19T10:11:51;96508.50;;;19.18;71.25
41334;BME280;27078;46.428;6.256;2023-05-19T10:14:21;96513.88;;;19.61;67.61
41334;BME280;27078;46.428;6.256;2023-05-19T10:16:49;96508.50;;;19.61;67.44
41334;BME280;27078;46.428;6.256;2023-05-19T10:19:15;96502.53;;;19.80;65.43
41334;BME280;27078;46.428;6.256;2023-05-19T10:21:41;96496.00;;;19.89;63.26
41334;BME280;27078;46.428;6.256;2023-05-19T10:24:06;96503.78;;;20.06;66.16
41334;BME280;27078;46.428;6.256;2023-05-19T10:26:33;96501.09;;;20.06;65.00
41334;BME280;27078;46.428;6.256;2023-05-19T10:29:01;96498.31;;;20.21;66.21
41334;BME280;27078;46.428;6.256;2023-05-19T10:31:27;96491.84;;;20.37;63.77
41334;BME280;27078;46.428;6.256;2023-05-19T10:36:43;96500.03;;;20.28;61.06
41334;BME280;27078;46.428;6.256;2023-05-19T10:47:05;96499.81;;;20.58;64.27
41334;BME280;27078;46.428;6.256;2023-05-19T10:49:34;96499.66;;;20.38;63.45
41334;BME280;27078;46.428;6.256;2023-05-19T10:52:00;96499.91;;;20.78;60.73
41334;BME280;27078;46.428;6.256;2023-05-19T10:54:42;96498.22;;;20.64;58.42
41334;BME280;27078;46.428;6.256;2023-05-19T10:57:14;96494.31;;;20.73;60.71
41334;BME280;27078;46.428;6.256;2023-05-19T10:59:40;96491.66;;;20.80;61.52
41334;BME280;27078;46.428;6.256;2023-05-19T11:02:07;96487.91;;;20.74;59.44
41334;BME280;27078;46.428;6.256;2023-05-19T11:04:45;96485.16;;;21.02;60.46
41334;BME280;27078;46.428;6.256;2023-05-19T11:07:16;96479.38;;;20.99;59.25
41334;BME280;27078;46.428;6.256;2023-05-19T11:09:42;96475.69;;;21.13;60.18
41334;BME280;27078;46.428;6.256;2023-05-19T11:12:08;96478.19;;;21.14;59.89
41334;BME280;27078;46.428;6.256;2023-05-19T11:14:35;96478.03;;;21.29;58.21
41334;BME280;27078;46.428;6.256;2023-05-19T11:17:00;96471.16;;;21.20;58.95
41334;BME280;27078;46.428;6.256;2023-05-19T11:19:30;96467.50;;;21.41;57.30
41334;BME280;27078;46.428;6.256;2023-05-19T11:22:06;96469.22;;;21.75;58.26
41334;BME280;27078;46.428;6.256;2023-05-19T11:24:37;96462.63;;;21.78;57.56
41334;BME280;27078;46.428;6.256;2023-05-19T11:27:26;96468.78;;;22.05;59.22
41334;BME280;27078;46.428;6.256;2023-05-19T11:29:54;96470.06;;;21.83;54.81
41334;BME280;27078;46.428;6.256;2023-05-19T11:32:21;96475.63;;;21.88;55.15
41334;BME280;27078;46.428;6.256;2023-05-19T11:34:48;96468.78;;;22.05;57.76
41334;BME280;27078;46.428;6.256;2023-05-19T11:37:14;96460.13;;;22.30;57.01
41334;BME280;27078;46.428;6.256;2023-05-19T11:39:40;96456.38;;;22.44;55.50
41334;BME280;27078;46.428;6.256;2023-05-19T11:42:07;96454.59;;;22.76;53.66
41334;BME280;27078;46.428;6.256;2023-05-19T11:44:33;96459.97;;;22.83;51.32
41334;BME280;27078;46.428;6.256;2023-05-19T11:46:59;96459.53;;;22.93;51.18
41334;BME280;27078;46.428;6.256;2023-05-19T11:49:27;96442.41;;;23.19;53.02
41334;BME280;27078;46.428;6.256;2023-05-19T11:51:52;96447.47;;;23.41;51.67
41334;BME280;27078;46.428;6.256;2023-05-19T11:54:18;96446.44;;;23.42;51.97
41334;BME280;27078;46.428;6.256;2023-05-19T11:56:43;96446.69;;;23.33;52.43
41334;BME280;27078;46.428;6.256;2023-05-19T11:59:09;96443.47;;;23.18;49.79
41334;BME280;27078;46.428;6.256;2023-05-19T12:01:35;96425.72;;;23.42;50.08
41334;BME280;27078;46.428;6.256;2023-05-19T12:04:01;96426.97;;;23.40;51.22
41334;BME280;27078;46.428;6.256;2023-05-19T12:06:27;96433.69;;;23.55;49.81
41334;BME280;27078;46.428;6.256;2023-05-19T12:08:53;96431.88;;;23.49;53.41
41334;BME280;27078;46.428;6.256;2023-05-19T12:11:19;96433.47;;;23.57;53.06
41334;BME280;27078;46.428;6.256;2023-05-19T12:13:46;96423.66;;;23.37;50.01
41334;BME280;27078;46.428;6.256;2023-05-19T12:16:11;96433.84;;;23.35;51.65
41334;BME280;27078;46.428;6.256;2023-05-19T12:18:37;96426.16;;;23.32;53.67
41334;BME280;27078;46.428;6.256;2023-05-19T12:21:03;96413.00;;;23.17;50.85
41334;BME280;27078;46.428;6.256;2023-05-19T12:23:29;96416.00;;;23.03;53.00
41334;BME280;27078;46.428;6.256;2023-05-19T12:25:56;96418.66;;;23.09;51.18
41334;BME280;27078;46.428;6.256;2023-05-19T12:28:22;96409.34;;;22.98;51.48
41334;BME280;27078;46.428;6.256;2023-05-19T12:30:49;96414.75;;;22.98;53.85
41334;BME280;27078;46.428;6.256;2023-05-19T12:33:19;96416.91;;;23.22;53.28
41334;BME280;27078;46.428;6.256;2023-05-19T12:35:47;96414.34;;;23.02;52.11
41334;BME280;27078;46.428;6.256;2023-05-19T12:38:14;96409.13;;;23.07;52.35
41334;BME280;27078;46.428;6.256;2023-05-19T12:40:41;96418.63;;;23.16;53.70
41334;BME280;27078;46.428;6.256;2023-05-19T12:43:07;96418.19;;;23.51;53.63
41334;BME280;27078;46.428;6.256;2023-05-19T12:45:34;96406.50;;;23.32;46.57
41334;BME280;27078;46.428;6.256;2023-05-19T12:48:02;96411.56;;;23.15;50.75
41334;BME280;27078;46.428;6.256;2023-05-19T12:50:31;96415.75;;;23.43;52.54
41334;BME280;27078;46.428;6.256;2023-05-19T12:52:57;96414.22;;;23.53;53.13
41334;BME280;27078;46.428;6.256;2023-05-19T12:55:24;96406.03;;;23.67;53.15
41334;BME280;27078;46.428;6.256;2023-05-19T12:57:50;96412.63;;;23.46;50.60
41334;BME280;27078;46.428;6.256;2023-05-19T13:00:21;96409.06;;;23.20;53.83
41334;BME280;27078;46.428;6.256;2023-05-19T13:03:07;96399.22;;;23.39;52.34
41334;BME280;27078;46.428;6.256;2023-05-19T13:05:38;96401.00;;;23.20;51.47
41334;BME280;27078;46.428;6.256;2023-05-19T13:08:04;96394.88;;;23.63;47.94
41334;BME280;27078;46.428;6.256;2023-05-19T13:10:30;96385.72;;;24.14;48.46
41334;BME280;27078;46.428;6.256;2023-05-19T13:12:56;96388.16;;;23.72;48.52
41334;BME280;27078;46.428;6.256;2023-05-19T13:15:24;96386.16;;;24.11;50.54
41334;BME280;27078;46.428;6.256;2023-05-19T13:17:53;96387.78;;;23.69;47.89
41334;BME280;27078;46.428;6.256;2023-05-19T13:20:19;96379.19;;;23.28;48.01